Athelstane, Wisconsin
Current Conditions -  °F | °C
As of 11:54 AM on Monday 24 Nov 2014 (Local Time) from KIMT Reporting Station
Overcast Overcast  
Wind Chill: 26°   Ceiling: 1400
Heat Index: 35°   Visibility: 10mi
Dew Point: 30°   Wind: 14mph
Humidity: 82%   Direction: 330°NNW
Pressure: 29.08"   Gusts: NA
Location:  45.42°N, 88.1°W
Report Text: KIMT 241754Z AUTO 33012KT 10SM OVC014 02/M01 A2908 RMK AO2 SLP858 60000 T00171011 10044 20017 51019
Loading
Personal Weather Stations






























Interactive Weather Map New forecast layout! Learn more

10-Day Weather Forecast

Advertisements
Track Severe Weather on mobile